Time;durP1;ratioP1;P1;durP2;ratioP2;P2;SDS_P1;SDS_P2;PMS_P1;PMS_P2;Temp;Humidity;BMP_temperature;BMP_pressure;BME280_temperature;BME280_humidity;BME280_pressure;Samples;Min_cycle;Max_cycle;Signal;HPM_P1;HPM_P2
2022/11/14 00:01:32;;;;;;;17.87;15.80;;;7.90;99.90;;;;;;4986549;28;20210;-30
2022/11/14 00:04:02;;;;;;;20.87;16.73;;;7.90;99.90;;;;;;5003244;28;20214;-29
2022/11/14 00:06:34;;;;;;;20.03;16.90;;;7.90;99.90;;;;;;4988374;28;20198;-29
2022/11/14 00:09:03;;;;;;;19.43;15.73;;;7.90;99.90;;;;;;5002057;28;20572;-30
2022/11/14 00:11:33;;;;;;;21.40;17.47;;;7.90;99.90;;;;;;4994237;28;20202;-30
2022/11/14 00:14:02;;;;;;;22.73;16.97;;;7.80;99.90;;;;;;4993355;28;20214;-30
2022/11/14 00:16:31;;;;;;;20.77;16.87;;;7.80;99.90;;;;;;4988343;28;20194;-29
2022/11/14 00:19:01;;;;;;;19.53;16.07;;;7.80;99.90;;;;;;4988850;28;20297;-29
2022/11/14 00:21:30;;;;;;;20.23;16.33;;;7.80;99.90;;;;;;5000233;28;20217;-30
2022/11/14 00:23:59;;;;;;;20.47;16.53;;;7.80;99.90;;;;;;5004790;28;20264;-29
2022/11/14 00:26:31;;;;;;;20.83;15.67;;;7.70;99.90;;;;;;5005772;28;20608;-29
2022/11/14 00:29:01;;;;;;;19.93;16.60;;;7.70;99.90;;;;;;4999571;28;20210;-29
2022/11/14 00:31:28;;;;;;;21.37;17.43;;;7.70;99.90;;;;;;5000793;28;20225;-29
2022/11/14 00:33:59;;;;;;;21.97;17.37;;;7.60;99.90;;;;;;4990648;28;20206;-29
2022/11/14 00:36:31;;;;;;;19.97;16.80;;;7.70;99.90;;;;;;5020984;28;20208;-29
2022/11/14 00:38:58;;;;;;;20.40;16.50;;;7.60;99.90;;;;;;5005815;28;20221;-29
2022/11/14 00:41:25;;;;;;;20.67;16.57;;;7.60;99.90;;;;;;4995469;28;20201;-29
2022/11/14 00:43:57;;;;;;;22.10;18.07;;;7.60;99.90;;;;;;5006300;28;20686;-29
2022/11/14 00:46:24;;;;;;;19.87;16.67;;;7.50;99.90;;;;;;5006765;28;20210;-29
2022/11/14 00:48:55;;;;;;;20.63;16.97;;;7.50;99.90;;;;;;5003102;28;20233;-29
2022/11/14 00:51:23;;;;;;;20.40;17.17;;;7.50;99.90;;;;;;4995272;28;20209;-29
2022/11/14 00:53:50;;;;;;;19.10;16.47;;;7.50;99.90;;;;;;5002540;28;20648;-29
2022/11/14 00:56:19;;;;;;;21.40;17.03;;;7.40;99.90;;;;;;4997064;28;20229;-29
2022/11/14 00:58:49;;;;;;;23.23;18.37;;;7.40;99.90;;;;;;5006038;28;20205;-29
2022/11/14 01:01:18;;;;;;;22.57;17.90;;;7.40;99.90;;;;;;5005992;28;20293;-29
2022/11/14 01:03:50;;;;;;;18.93;16.80;;;7.40;99.90;;;;;;5005467;28;20252;-29
2022/11/14 01:06:19;;;;;;;19.80;17.10;;;7.30;99.90;;;;;;5005287;28;20217;-29
2022/11/14 01:08:49;;;;;;;20.03;16.43;;;7.30;99.90;;;;;;5003532;28;20685;-29
2022/11/14 01:11:19;;;;;;;19.17;16.60;;;7.30;99.90;;;;;;4992897;28;20212;-29
2022/11/14 01:13:47;;;;;;;21.00;16.93;;;7.30;99.90;;;;;;5002402;28;20213;-29
2022/11/14 01:16:14;;;;;;;20.73;16.67;;;7.20;99.90;;;;;;5004749;28;20807;-29
2022/11/14 01:18:41;;;;;;;22.93;17.50;;;7.20;99.90;;;;;;5004682;28;20287;-29
2022/11/14 01:21:12;;;;;;;20.77;17.30;;;7.20;99.90;;;;;;5006113;28;20301;-29
2022/11/14 01:23:40;;;;;;;22.77;18.20;;;7.20;99.90;;;;;;5004622;28;20857;-29
2022/11/14 01:26:12;;;;;;;21.20;17.73;;;7.20;99.90;;;;;;5005657;28;20210;-29
2022/11/14 01:28:42;;;;;;;20.77;17.70;;;7.10;99.90;;;;;;5001413;28;20199;-29
2022/11/14 01:31:13;;;;;;;19.80;17.20;;;7.20;99.90;;;;;;4998633;28;20213;-29
2022/11/14 01:33:41;;;;;;;20.07;16.80;;;7.10;99.90;;;;;;4991908;28;20205;-29
2022/11/14 01:36:11;;;;;;;21.93;18.43;;;7.10;99.90;;;;;;5005556;28;20205;-29
2022/11/14 01:38:40;;;;;;;21.20;17.53;;;7.10;99.90;;;;;;5004274;28;21432;-29
2022/11/14 01:41:11;;;;;;;22.97;17.37;;;7.10;99.90;;;;;;4993323;28;20224;-31
2022/11/14 01:43:41;;;;;;;21.00;17.50;;;7.10;99.90;;;;;;4998570;28;20232;-32
2022/11/14 01:46:17;;;;;;;19.47;17.03;;;7.10;99.90;;;;;;4997126;28;20207;-32
2022/11/14 01:48:53;;;;;;;22.83;17.40;;;7.00;99.90;;;;;;4988820;28;20253;-30
2022/11/14 01:51:54;;;;;;;23.00;17.77;;;7.00;99.90;;;;;;5005309;28;20297;-29
2022/11/14 01:54:45;;;;;;;19.37;17.17;;;7.00;99.90;;;;;;4993189;28;20212;-29
2022/11/14 01:57:15;;;;;;;22.03;17.80;;;7.00;99.90;;;;;;4985409;28;20221;-29
2022/11/14 01:59:53;;;;;;;21.87;17.37;;;7.00;99.90;;;;;;4987935;28;20214;-29
2022/11/14 02:02:24;;;;;;;21.40;17.10;;;6.90;99.90;;;;;;4997664;28;20264;-29
2022/11/14 02:05:05;;;;;;;20.80;16.80;;;6.90;99.90;;;;;;4990600;28;20224;-29
2022/11/14 02:07:37;;;;;;;22.67;17.23;;;6.90;99.90;;;;;;4999485;28;20214;-29
2022/11/14 02:10:18;;;;;;;20.50;17.17;;;6.90;99.90;;;;;;4997144;28;20230;-31
2022/11/14 02:12:45;;;;;;;18.87;16.33;;;6.80;99.90;;;;;;4997824;28;20792;-31
2022/11/14 02:15:15;;;;;;;20.20;16.20;;;6.80;99.90;;;;;;4999587;28;20328;-31
2022/11/14 02:17:43;;;;;;;20.93;17.20;;;6.80;99.90;;;;;;4997504;28;20626;-31
2022/11/14 02:20:12;;;;;;;20.27;16.73;;;6.80;99.90;;;;;;4995006;28;20208;-31
2022/11/14 02:22:42;;;;;;;18.87;15.40;;;6.70;99.90;;;;;;4996430;28;20264;-31
2022/11/14 02:25:10;;;;;;;21.10;16.90;;;6.70;99.90;;;;;;4998600;28;20513;-31
2022/11/14 02:27:43;;;;;;;19.43;15.47;;;6.70;99.90;;;;;;5004138;28;20292;-31
2022/11/14 02:30:21;;;;;;;18.83;15.30;;;6.60;99.90;;;;;;5001805;28;20240;-31
2022/11/14 02:32:50;;;;;;;19.27;16.03;;;6.70;99.90;;;;;;5005263;28;20715;-31
2022/11/14 02:35:40;;;;;;;20.63;16.33;;;6.60;99.90;;;;;;5004462;28;20580;-29
2022/11/14 02:38:08;;;;;;;21.23;16.70;;;6.60;99.90;;;;;;5002988;28;20232;-29
2022/11/14 02:40:37;;;;;;;20.73;16.07;;;6.60;99.90;;;;;;4994518;28;20210;-29
2022/11/14 02:43:04;;;;;;;19.10;15.93;;;6.60;99.90;;;;;;4985691;28;20659;-29
2022/11/14 02:45:35;;;;;;;21.70;17.33;;;6.60;99.90;;;;;;4997604;28;20268;-29
2022/11/14 02:48:05;;;;;;;21.50;16.53;;;6.50;99.90;;;;;;4999174;28;20257;-29
2022/11/14 02:50:32;;;;;;;20.63;16.33;;;6.50;99.90;;;;;;5004851;28;20680;-29
2022/11/14 02:53:04;;;;;;;22.90;17.07;;;6.50;99.90;;;;;;4995176;28;20649;-29
2022/11/14 02:55:31;;;;;;;20.17;16.33;;;6.40;99.90;;;;;;5004021;28;20198;-29
2022/11/14 02:57:58;;;;;;;20.00;16.70;;;6.40;99.90;;;;;;4990381;28;20209;-29
2022/11/14 03:00:30;;;;;;;19.67;16.10;;;6.40;99.90;;;;;;5003484;28;20209;-31
2022/11/14 03:03:07;;;;;;;19.87;16.47;;;6.40;99.90;;;;;;5002026;28;20230;-31
2022/11/14 03:05:34;;;;;;;20.03;17.30;;;6.30;99.90;;;;;;4999202;28;20213;-31
2022/11/14 03:08:02;;;;;;;20.77;16.77;;;6.30;99.90;;;;;;5000710;28;20293;-31
2022/11/14 03:10:31;;;;;;;20.57;16.33;;;6.30;99.90;;;;;;4989072;28;20210;-31
2022/11/14 03:13:00;;;;;;;19.17;16.20;;;6.30;99.90;;;;;;4995566;28;20569;-31
2022/11/14 03:15:30;;;;;;;23.27;17.83;;;6.30;99.90;;;;;;5007258;28;20292;-31
2022/11/14 03:17:59;;;;;;;21.20;17.63;;;6.30;99.90;;;;;;5007223;28;20225;-31
2022/11/14 03:20:29;;;;;;;23.07;17.70;;;6.20;99.90;;;;;;4992966;28;20238;-31
2022/11/14 03:23:01;;;;;;;19.37;15.60;;;6.20;99.90;;;;;;4990391;28;20239;-31
2022/11/14 03:25:36;;;;;;;23.17;17.77;;;6.20;99.90;;;;;;4993380;28;20714;-29
2022/11/14 03:28:05;;;;;;;20.67;17.17;;;6.20;99.90;;;;;;4990991;28;20204;-29
2022/11/14 03:30:35;;;;;;;21.33;18.20;;;6.10;99.90;;;;;;4993276;28;20337;-29
2022/11/14 03:33:04;;;;;;;20.00;17.47;;;6.10;99.90;;;;;;5005996;28;20277;-29
2022/11/14 03:35:33;;;;;;;21.53;17.83;;;6.10;99.90;;;;;;4993193;28;20208;-29
2022/11/14 03:38:01;;;;;;;22.67;17.37;;;6.00;99.90;;;;;;5006186;28;20717;-29
2022/11/14 03:40:28;;;;;;;20.23;17.20;;;6.00;99.90;;;;;;5006989;28;20320;-29
2022/11/14 03:42:58;;;;;;;20.03;17.03;;;6.00;99.90;;;;;;5006699;28;20221;-29
2022/11/14 03:45:25;;;;;;;21.50;17.47;;;5.90;99.90;;;;;;5007122;28;20222;-29
2022/11/14 03:47:53;;;;;;;21.13;16.93;;;5.90;99.90;;;;;;5006639;28;20244;-29
2022/11/14 03:50:23;;;;;;;21.03;17.33;;;5.90;99.90;;;;;;4994379;28;20253;-29
2022/11/14 03:52:52;;;;;;;22.53;17.97;;;5.90;99.90;;;;;;4987537;28;20218;-31
2022/11/14 03:55:24;;;;;;;19.30;16.47;;;5.90;99.90;;;;;;5002184;28;20265;-31
2022/11/14 03:57:53;;;;;;;23.87;17.77;;;5.90;99.90;;;;;;5007013;28;20209;-31
2022/11/14 04:00:21;;;;;;;20.47;17.67;;;5.90;99.90;;;;;;5006637;28;20209;-31
2022/11/14 04:02:53;;;;;;;22.00;17.60;;;5.90;99.90;;;;;;5005827;28;20268;-31
2022/11/14 04:05:22;;;;;;;21.30;17.07;;;5.90;99.90;;;;;;5007631;28;20300;-31
2022/11/14 04:07:52;;;;;;;20.53;17.47;;;5.90;99.90;;;;;;5006764;28;20209;-31
2022/11/14 04:10:21;;;;;;;22.00;18.13;;;5.80;99.90;;;;;;5012457;28;20218;-31
2022/11/14 04:12:50;;;;;;;21.07;18.20;;;5.80;99.90;;;;;;4988751;28;20584;-31
2022/11/14 04:15:20;;;;;;;22.07;17.73;;;5.80;99.90;;;;;;5013859;28;20202;-31
2022/11/14 04:17:47;;;;;;;21.67;18.27;;;5.80;99.90;;;;;;5021679;28;20205;-31
2022/11/14 04:20:17;;;;;;;22.37;17.67;;;5.70;99.90;;;;;;5009488;28;20229;-31
2022/11/14 04:22:48;;;;;;;23.17;18.87;;;5.70;99.90;;;;;;5002417;28;20705;-31
2022/11/14 04:25:18;;;;;;;27.73;19.50;;;5.70;99.90;;;;;;5005290;28;20205;-31
2022/11/14 04:27:47;;;;;;;23.37;18.87;;;5.70;99.90;;;;;;5006257;28;20220;-32
2022/11/14 04:30:19;;;;;;;23.87;18.33;;;5.70;99.90;;;;;;5010466;28;20199;-31
2022/11/14 04:32:49;;;;;;;23.80;17.80;;;5.70;99.90;;;;;;5005222;28;20570;-31
2022/11/14 04:35:18;;;;;;;24.73;19.20;;;5.70;99.90;;;;;;5006574;28;20205;-31
2022/11/14 04:37:45;;;;;;;29.87;18.93;;;5.70;99.90;;;;;;5005658;28;20233;-31
2022/11/14 04:40:15;;;;;;;25.50;18.87;;;5.70;99.90;;;;;;5006753;28;20725;-31
2022/11/14 04:42:42;;;;;;;22.00;17.67;;;5.70;99.90;;;;;;5006689;28;20206;-31
2022/11/14 04:45:10;;;;;;;26.80;18.63;;;5.70;99.90;;;;;;5003993;28;20229;-31
2022/11/14 04:47:39;;;;;;;51.90;23.57;;;5.70;99.90;;;;;;4993997;28;20731;-31
2022/11/14 04:50:07;;;;;;;65.23;23.73;;;5.60;99.90;;;;;;5006158;28;20243;-31
2022/11/14 04:52:34;;;;;;;35.50;20.37;;;5.60;99.90;;;;;;5006179;28;20210;-31
2022/11/14 04:55:01;;;;;;;35.13;21.00;;;5.60;99.90;;;;;;5004363;28;20209;-31
2022/11/14 04:57:28;;;;;;;23.57;18.40;;;5.60;99.90;;;;;;4994261;28;20315;-31
2022/11/14 04:59:58;;;;;;;23.57;18.73;;;5.60;99.90;;;;;;5005662;28;20579;-31
2022/11/14 05:02:32;;;;;;;24.30;18.83;;;5.60;99.90;;;;;;5005653;28;20221;-31
2022/11/14 05:05:04;;;;;;;23.23;19.20;;;5.60;99.90;;;;;;4994325;28;20206;-31
2022/11/14 05:07:33;;;;;;;25.00;18.57;;;5.60;99.90;;;;;;5004720;28;20201;-31
2022/11/14 05:10:03;;;;;;;23.50;18.50;;;5.50;99.90;;;;;;5007024;28;20233;-31
2022/11/14 05:12:30;;;;;;;33.73;19.33;;;5.50;99.90;;;;;;4989098;28;20209;-31
2022/11/14 05:15:02;;;;;;;25.13;17.17;;;5.50;99.90;;;;;;4999758;28;20699;-31
2022/11/14 05:17:31;;;;;;;26.97;19.27;;;5.50;99.90;;;;;;4996720;28;20221;-31
2022/11/14 05:20:01;;;;;;;24.07;19.20;;;5.50;99.90;;;;;;5004477;28;20284;-31
2022/11/14 05:22:28;;;;;;;22.30;17.83;;;5.40;99.90;;;;;;5005633;28;20570;-31
2022/11/14 05:24:57;;;;;;;19.60;17.50;;;5.40;99.90;;;;;;5005182;28;20625;-31
2022/11/14 05:27:27;;;;;;;21.60;18.40;;;5.40;99.90;;;;;;4986859;28;20441;-31
2022/11/14 05:29:54;;;;;;;24.27;17.70;;;5.40;99.90;;;;;;5002301;28;20214;-31
2022/11/14 05:32:21;;;;;;;20.10;16.60;;;5.40;99.90;;;;;;4989924;28;20220;-31
2022/11/14 05:34:48;;;;;;;21.43;17.57;;;5.40;99.90;;;;;;5005157;28;20296;-31
2022/11/14 05:37:18;;;;;;;22.53;17.60;;;5.30;99.90;;;;;;5004097;28;20607;-31
2022/11/14 05:39:49;;;;;;;22.30;18.27;;;5.30;99.90;;;;;;4999475;28;20213;-29
2022/11/14 05:42:16;;;;;;;22.53;17.97;;;5.30;99.90;;;;;;4986646;28;20665;-29
2022/11/14 05:44:50;;;;;;;23.33;17.90;;;5.30;99.90;;;;;;4995356;28;20237;-31
2022/11/14 05:47:17;;;;;;;22.67;17.53;;;5.20;99.90;;;;;;5004605;28;20292;-31
2022/11/14 05:49:47;;;;;;;21.20;17.37;;;5.20;99.90;;;;;;5005387;28;20645;-31
2022/11/14 05:52:14;;;;;;;22.30;17.80;;;5.20;99.90;;;;;;5003893;28;20252;-31
2022/11/14 05:54:43;;;;;;;19.97;17.00;;;5.20;99.90;;;;;;5005223;28;20210;-31
2022/11/14 05:57:13;;;;;;;23.43;17.83;;;5.20;99.90;;;;;;4987020;28;20740;-31
2022/11/14 05:59:42;;;;;;;20.43;17.00;;;5.20;99.90;;;;;;4988646;28;20211;-31
2022/11/14 06:02:16;;;;;;;23.87;17.53;;;5.10;99.90;;;;;;5010669;28;20206;-31
2022/11/14 06:04:46;;;;;;;21.90;17.27;;;5.10;99.90;;;;;;4996890;28;20229;-31
2022/11/14 06:07:15;;;;;;;21.40;17.40;;;5.10;99.90;;;;;;5002526;28;20198;-31
2022/11/14 06:09:46;;;;;;;22.63;16.83;;;5.10;99.90;;;;;;5005766;28;20209;-31
2022/11/14 06:12:17;;;;;;;21.43;16.53;;;5.10;99.90;;;;;;5005654;28;20218;-31
2022/11/14 06:14:45;;;;;;;20.00;15.73;;;5.10;99.90;;;;;;5005687;28;20247;-31
2022/11/14 06:17:14;;;;;;;24.63;17.70;;;5.10;99.90;;;;;;4991442;28;20214;-29
2022/11/14 06:19:43;;;;;;;23.13;17.73;;;5.10;99.90;;;;;;5004023;28;20206;-29
2022/11/14 06:22:11;;;;;;;21.33;16.27;;;5.10;99.90;;;;;;5002092;28;20217;-29
2022/11/14 06:24:40;;;;;;;21.13;16.03;;;5.10;99.90;;;;;;4993593;28;20241;-29
2022/11/14 06:27:08;;;;;;;24.30;17.87;;;5.10;99.90;;;;;;5012817;28;20705;-29
2022/11/14 06:29:35;;;;;;;22.43;17.37;;;5.10;99.90;;;;;;5004633;28;20220;-31
2022/11/14 06:32:02;;;;;;;20.97;17.33;;;5.10;99.90;;;;;;5005440;28;20209;-31
2022/11/14 06:34:29;;;;;;;25.37;17.50;;;5.10;99.90;;;;;;4990944;28;20450;-31
2022/11/14 06:36:56;;;;;;;23.50;18.03;;;5.10;99.90;;;;;;5002794;28;20236;-31
2022/11/14 06:39:23;;;;;;;25.00;18.53;;;5.10;99.90;;;;;;4998963;28;20621;-31
2022/11/14 06:41:52;;;;;;;23.53;17.07;;;5.10;99.90;;;;;;5004237;28;20221;-29
2022/11/14 06:44:20;;;;;;;26.27;17.60;;;5.10;99.90;;;;;;5007568;28;20233;-29
2022/11/14 06:46:53;;;;;;;23.23;16.73;;;5.10;99.90;;;;;;4994822;28;20292;-29
2022/11/14 06:49:23;;;;;;;24.50;17.47;;;5.10;99.90;;;;;;5011816;28;20236;-29
2022/11/14 06:51:53;;;;;;;28.13;17.33;;;5.10;99.90;;;;;;4999694;28;20197;-29
2022/11/14 06:54:20;;;;;;;24.67;17.70;;;5.00;99.90;;;;;;5003360;28;20672;-31
2022/11/14 06:56:47;;;;;;;23.03;17.63;;;5.00;99.90;;;;;;5015055;28;20213;-31
2022/11/14 06:59:17;;;;;;;21.90;17.17;;;5.00;99.90;;;;;;5003411;28;20201;-31
2022/11/14 07:01:46;;;;;;;29.30;17.50;;;5.00;99.90;;;;;;4997549;28;20216;-29
2022/11/14 07:04:13;;;;;;;32.83;18.10;;;5.00;99.90;;;;;;5016612;28;20214;-32
2022/11/14 07:06:42;;;;;;;29.33;17.97;;;5.00;99.90;;;;;;5024670;28;20250;-32
2022/11/14 07:09:10;;;;;;;25.77;16.27;;;5.00;99.90;;;;;;5012600;28;20510;-32
2022/11/14 07:11:37;;;;;;;23.57;16.67;;;5.00;99.90;;;;;;5018636;28;20219;-31
2022/11/14 07:14:07;;;;;;;28.50;17.30;;;5.00;99.90;;;;;;5018471;28;20206;-29
2022/11/14 07:16:37;;;;;;;23.97;16.40;;;5.00;99.90;;;;;;4992124;28;20296;-29
2022/11/14 07:19:08;;;;;;;23.70;17.03;;;5.00;99.90;;;;;;5006295;28;20218;-29
2022/11/14 07:21:38;;;;;;;25.00;16.53;;;5.00;99.90;;;;;;5005588;28;20209;-30
2022/11/14 07:24:05;;;;;;;22.47;17.27;;;5.00;99.90;;;;;;5004215;28;20228;-29
2022/11/14 07:26:37;;;;;;;25.90;17.70;;;5.00;99.90;;;;;;5009755;28;20636;-30
2022/11/14 07:29:04;;;;;;;45.83;19.17;;;5.00;99.90;;;;;;5019215;28;20224;-30
2022/11/14 07:31:34;;;;;;;34.07;17.27;;;5.00;99.90;;;;;;5016070;28;20216;-30
2022/11/14 07:34:04;;;;;;;22.60;16.63;;;5.00;99.90;;;;;;5015726;28;20255;-30
2022/11/14 07:36:31;;;;;;;20.33;15.23;;;5.00;99.90;;;;;;5005341;28;20201;-29
2022/11/14 07:39:01;;;;;;;21.90;15.33;;;5.00;99.90;;;;;;5011291;28;20216;-29
2022/11/14 07:41:28;;;;;;;20.87;15.97;;;5.00;99.90;;;;;;5015832;28;20598;-29
2022/11/14 07:43:58;;;;;;;20.93;16.70;;;5.00;99.90;;;;;;5011383;28;20267;-29
2022/11/14 07:46:25;;;;;;;22.33;15.77;;;5.00;99.90;;;;;;5005387;28;20634;-29
2022/11/14 07:48:52;;;;;;;20.13;15.17;;;5.00;99.90;;;;;;5004674;28;20699;-29
2022/11/14 07:51:19;;;;;;;16.77;13.93;;;5.00;99.90;;;;;;5021943;28;20213;-29
2022/11/14 07:53:46;;;;;;;22.17;16.20;;;5.00;99.90;;;;;;5026250;28;20204;-29
2022/11/14 07:56:15;;;;;;;18.70;15.10;;;5.00;99.90;;;;;;5023375;28;20205;-29
2022/11/14 07:58:45;;;;;;;21.77;14.83;;;5.10;99.90;;;;;;5006057;28;20248;-29
2022/11/14 08:01:15;;;;;;;21.03;15.07;;;5.10;99.90;;;;;;5014619;28;20205;-29
2022/11/14 08:03:43;;;;;;;22.53;15.97;;;5.10;99.90;;;;;;5027702;28;20312;-30
2022/11/14 08:06:15;;;;;;;18.73;14.63;;;5.10;99.90;;;;;;5027225;28;20240;-30
2022/11/14 08:08:47;;;;;;;19.60;15.10;;;5.20;99.90;;;;;;5006997;28;20569;-29
2022/11/14 08:11:14;;;;;;;21.93;14.97;;;5.20;99.90;;;;;;5007050;28;20320;-29
2022/11/14 08:14:00;;;;;;;21.27;14.17;;;5.20;99.90;;;;;;4999206;28;20889;-29
2022/11/14 08:16:30;;;;;;;20.23;14.33;;;5.30;99.90;;;;;;5015277;28;20224;-29
2022/11/14 08:18:57;;;;;;;22.03;14.70;;;5.30;99.90;;;;;;5007136;28;20214;-32
2022/11/14 08:21:28;;;;;;;19.53;14.33;;;5.30;99.90;;;;;;5007428;28;20202;-32
2022/11/14 08:23:55;;;;;;;21.30;13.60;;;5.40;99.90;;;;;;5004857;28;20242;-30
2022/11/14 08:26:22;;;;;;;16.37;13.57;;;5.40;99.90;;;;;;4988723;28;20198;-32
2022/11/14 08:28:53;;;;;;;18.10;13.07;;;5.40;99.90;;;;;;5002600;28;20209;-32
2022/11/14 08:31:20;;;;;;;16.10;12.50;;;5.50;99.90;;;;;;5007688;28;20197;-32
2022/11/14 08:33:50;;;;;;;16.53;12.13;;;5.50;99.90;;;;;;5004942;28;20599;-29
2022/11/14 08:36:20;;;;;;;14.93;12.30;;;5.60;99.90;;;;;;5001577;28;20204;-30
2022/11/14 08:38:47;;;;;;;19.60;13.03;;;5.60;99.90;;;;;;5005546;28;20763;-30
2022/11/14 08:41:22;;;;;;;17.23;12.53;;;5.60;99.90;;;;;;5003453;28;20205;-29
2022/11/14 08:43:49;;;;;;;17.27;13.97;;;5.70;99.90;;;;;;5014741;28;20289;-29
2022/11/14 08:46:16;;;;;;;23.50;13.43;;;5.70;99.90;;;;;;5014154;28;20760;-30
2022/11/14 08:48:44;;;;;;;19.23;13.37;;;5.80;99.90;;;;;;5008943;28;20268;-32
2022/11/14 08:51:13;;;;;;;18.13;13.03;;;5.80;99.90;;;;;;5010367;28;20225;-32
2022/11/14 08:53:45;;;;;;;15.87;12.10;;;5.90;99.90;;;;;;5008729;28;20312;-32
2022/11/14 08:56:14;;;;;;;17.83;13.13;;;5.90;99.90;;;;;;5019332;28;20509;-30
2022/11/14 08:58:41;;;;;;;19.20;12.80;;;6.00;99.90;;;;;;5018015;28;20631;-30
2022/11/14 09:01:11;;;;;;;19.37;13.07;;;6.00;99.90;;;;;;5026075;28;20212;-30
2022/11/14 09:03:38;;;;;;;18.63;13.87;;;6.10;99.90;;;;;;5023144;28;20534;-30
2022/11/14 09:06:09;;;;;;;18.87;12.43;;;6.10;99.90;;;;;;5021369;28;20270;-30
2022/11/14 09:08:41;;;;;;;18.83;13.17;;;6.20;99.90;;;;;;5011089;28;20214;-30
2022/11/14 09:11:08;;;;;;;17.17;12.17;;;6.30;99.90;;;;;;5004329;28;20200;-29
2022/11/14 09:13:36;;;;;;;19.20;13.33;;;6.30;99.90;;;;;;5020022;28;20255;-29
2022/11/14 09:16:08;;;;;;;15.93;12.17;;;6.30;99.90;;;;;;5006003;28;20194;-30
2022/11/14 09:18:36;;;;;;;16.27;13.07;;;6.40;99.90;;;;;;5011033;28;20213;-29
2022/11/14 09:21:05;;;;;;;17.33;12.17;;;6.50;99.90;;;;;;5024000;28;20738;-30
2022/11/14 09:23:35;;;;;;;16.87;12.70;;;6.50;99.90;;;;;;5008015;28;20581;-29
2022/11/14 09:26:07;;;;;;;17.00;12.67;;;6.60;99.90;;;;;;5003560;28;20308;-29
2022/11/14 09:28:38;;;;;;;17.63;12.87;;;6.70;99.90;;;;;;4991991;28;20593;-29
2022/11/14 09:31:12;;;;;;;17.53;12.80;;;6.70;99.90;;;;;;5025268;28;20243;-30
2022/11/14 09:33:39;;;;;;;15.30;12.03;;;6.70;99.90;;;;;;5022744;28;20201;-29
2022/11/14 09:36:14;;;;;;;16.77;12.67;;;6.80;99.90;;;;;;5023915;28;20232;-29
2022/11/14 09:38:44;;;;;;;17.43;13.13;;;6.90;99.90;;;;;;5010600;28;20216;-29
2022/11/14 09:41:37;;;;;;;15.80;12.57;;;7.00;99.90;;;;;;5008478;28;20577;-30
2022/11/14 09:44:15;;;;;;;15.70;11.93;;;7.00;99.90;;;;;;5003265;28;20297;-29
2022/11/14 09:47:02;;;;;;;17.97;12.37;;;7.10;99.90;;;;;;5022608;28;20291;-29
2022/11/14 09:49:40;;;;;;;17.50;12.43;;;7.10;99.90;;;;;;5021162;28;20498;-29
2022/11/14 09:52:38;;;;;;;16.20;11.77;;;7.20;99.90;;;;;;5009889;28;20208;-29
2022/11/14 09:55:16;;;;;;;17.97;10.87;;;7.30;99.90;;;;;;5015555;28;20212;-29
2022/11/14 09:57:46;;;;;;;15.47;10.67;;;7.40;99.90;;;;;;5016044;28;20307;-30
2022/11/14 10:00:23;;;;;;;19.80;11.03;;;7.50;99.90;;;;;;5033400;28;20201;-29
2022/11/14 10:03:02;;;;;;;16.87;11.07;;;7.60;99.90;;;;;;5006634;28;20200;-29
2022/11/14 10:06:07;;;;;;;15.77;9.80;;;7.60;99.90;;;;;;5018477;28;20303;-29
2022/11/14 10:08:50;;;;;;;13.63;10.13;;;7.70;99.90;;;;;;4998603;28;20217;-29
2022/11/14 10:11:39;;;;;;;14.57;9.77;;;7.80;99.90;;;;;;5021029;28;20227;-29
2022/11/14 10:14:41;;;;;;;15.07;10.03;;;7.90;99.90;;;;;;5001237;28;20217;-29
2022/11/14 10:17:27;;;;;;;13.73;10.00;;;8.00;99.90;;;;;;4999654;28;20348;-29
2022/11/14 10:20:18;;;;;;;15.47;9.90;;;8.10;99.90;;;;;;4995936;28;20292;-29
2022/11/14 10:22:55;;;;;;;13.37;9.87;;;8.10;99.90;;;;;;5001617;28;20211;-29
2022/11/14 10:26:01;;;;;;;13.73;10.33;;;8.20;99.90;;;;;;4998316;28;20237;-29
2022/11/14 10:28:51;;;;;;;15.57;10.10;;;8.30;99.90;;;;;;5012153;28;20207;-29
2022/11/14 10:31:53;;;;;;;13.17;9.87;;;8.30;99.90;;;;;;5008347;28;20343;-29
2022/11/14 10:34:59;;;;;;;14.23;10.53;;;8.40;99.90;;;;;;4998686;28;20221;-29
2022/11/14 10:37:40;;;;;;;14.53;9.53;;;8.50;99.90;;;;;;4982084;28;20233;-29
2022/11/14 10:40:24;;;;;;;19.53;11.33;;;8.50;99.90;;;;;;4987017;28;20198;-29
2022/11/14 10:43:01;;;;;;;14.03;10.67;;;8.60;99.90;;;;;;5005641;28;20290;-29
2022/11/14 10:45:40;;;;;;;14.90;10.10;;;8.70;99.90;;;;;;5014710;28;20228;-29
2022/11/14 10:48:15;;;;;;;19.00;10.80;;;8.70;99.90;;;;;;5023238;28;20236;-29
2022/11/14 10:50:51;;;;;;;20.17;11.10;;;8.80;99.90;;;;;;5019921;28;20224;-29
2022/11/14 10:53:30;;;;;;;15.33;10.43;;;8.80;99.90;;;;;;5000619;28;20208;-29
2022/11/14 10:55:59;;;;;;;12.67;10.27;;;8.90;99.90;;;;;;5017992;28;20213;-29
2022/11/14 10:58:38;;;;;;;11.83;9.73;;;9.00;99.90;;;;;;5000205;28;20208;-29
2022/11/14 11:01:43;;;;;;;13.47;10.07;;;9.00;99.90;;;;;;5005395;28;20218;-29
2022/11/14 11:04:13;;;;;;;13.07;10.70;;;9.10;99.90;;;;;;5002931;28;20554;-29
2022/11/14 11:06:41;;;;;;;13.63;10.77;;;9.10;99.90;;;;;;5011484;28;20664;-29
2022/11/14 11:12:23;;;;;;;13.23;11.07;;;9.20;99.90;;;;;;5019190;28;20517;-29
2022/11/14 11:15:20;;;;;;;15.63;12.10;;;9.30;99.90;;;;;;4995894;28;20248;-30
2022/11/14 11:17:53;;;;;;;14.60;11.13;;;9.30;99.90;;;;;;5005658;28;20244;-29
2022/11/14 11:20:37;;;;;;;15.80;11.97;;;9.30;99.90;;;;;;5010864;28;20218;-29
2022/11/14 11:23:08;;;;;;;17.07;12.30;;;9.40;99.90;;;;;;5004364;28;20216;-29
2022/11/14 11:25:41;;;;;;;16.63;12.67;;;9.40;99.90;;;;;;5017389;28;20239;-29
2022/11/14 11:28:15;;;;;;;17.80;12.40;;;9.40;99.90;;;;;;5003612;28;20205;-29
2022/11/14 11:30:59;;;;;;;16.80;11.70;;;9.40;99.90;;;;;;5023072;28;20206;-29
2022/11/14 11:33:34;;;;;;;16.83;12.33;;;9.40;99.90;;;;;;5007797;28;20203;-29
2022/11/14 11:36:24;;;;;;;17.20;12.60;;;9.30;99.90;;;;;;5006626;28;20209;-29
2022/11/14 11:38:54;;;;;;;24.03;13.80;;;9.30;99.90;;;;;;5006246;28;20213;-29
2022/11/14 11:41:24;;;;;;;19.10;13.77;;;9.30;99.90;;;;;;4997492;28;20212;-29
2022/11/14 11:44:15;;;;;;;17.40;13.53;;;9.30;99.90;;;;;;4992188;28;20210;-29
2022/11/14 11:46:56;;;;;;;18.03;14.47;;;9.30;99.90;;;;;;4989662;28;20214;-29
2022/11/14 11:49:29;;;;;;;19.87;15.17;;;9.20;99.90;;;;;;4994447;28;20268;-29
2022/11/14 11:52:03;;;;;;;19.20;14.87;;;9.20;99.90;;;;;;4997696;28;20226;-29
2022/11/14 11:54:48;;;;;;;19.90;15.53;;;9.20;99.90;;;;;;5014119;28;20718;-29
2022/11/14 11:57:18;;;;;;;17.27;13.07;;;9.20;99.90;;;;;;5020980;28;20620;-29
2022/11/14 11:59:57;;;;;;;18.23;14.23;;;9.20;99.90;;;;;;5019428;28;20221;-29
2022/11/14 12:02:25;;;;;;;17.30;13.60;;;9.20;99.90;;;;;;5015348;28;20205;-29
2022/11/14 12:04:55;;;;;;;17.63;13.47;;;9.20;99.90;;;;;;5014260;28;20260;-29
2022/11/14 12:07:47;;;;;;;20.97;14.60;;;9.20;99.90;;;;;;4999876;28;20216;-29
2022/11/14 12:10:26;;;;;;;22.77;14.97;;;9.20;99.90;;;;;;5019601;28;21145;-29
2022/11/14 12:13:23;;;;;;;22.70;15.10;;;9.20;99.90;;;;;;5019939;28;20232;-30
2022/11/14 12:16:08;;;;;;;22.03;14.53;;;9.20;99.90;;;;;;5009954;28;20204;-28
2022/11/14 12:19:23;;;;;;;18.67;14.00;;;9.20;99.90;;;;;;5010732;28;20231;-28
2022/11/14 12:22:19;;;;;;;21.27;13.37;;;9.20;99.90;;;;;;4999912;28;20692;-29
2022/11/14 12:24:58;;;;;;;20.43;14.20;;;9.20;99.90;;;;;;5017242;28;20222;-29
2022/11/14 12:27:48;;;;;;;20.00;13.73;;;9.10;99.90;;;;;;5010155;28;20692;-29
2022/11/14 12:30:22;;;;;;;16.57;12.83;;;9.20;99.90;;;;;;4999803;28;20300;-28
2022/11/14 12:32:59;;;;;;;20.27;13.33;;;9.20;99.90;;;;;;5022818;28;20644;-28
2022/11/14 12:35:32;;;;;;;17.70;12.83;;;9.20;99.90;;;;;;5004927;28;20269;-29
2022/11/14 12:38:11;;;;;;;18.77;13.53;;;9.20;99.90;;;;;;5009136;28;20228;-31
2022/11/14 12:40:55;;;;;;;18.57;13.37;;;9.20;99.90;;;;;;5009726;28;20225;-31
2022/11/14 12:43:43;;;;;;;17.20;13.23;;;9.30;99.90;;;;;;5013396;28;20213;-28
2022/11/14 12:46:13;;;;;;;19.43;13.43;;;9.30;99.90;;;;;;4997152;28;20232;-29
2022/11/14 12:48:44;;;;;;;18.83;14.37;;;9.30;99.90;;;;;;5010542;28;20236;-28
2022/11/14 12:51:23;;;;;;;18.80;13.60;;;9.40;99.90;;;;;;5001794;28;20213;-28
2022/11/14 12:53:55;;;;;;;21.57;14.07;;;9.40;99.90;;;;;;5004938;28;20200;-28
2022/11/14 12:56:31;;;;;;;19.00;13.63;;;9.40;99.90;;;;;;5008060;28;20632;-28
2022/11/14 12:59:10;;;;;;;19.83;13.90;;;9.40;99.90;;;;;;5018480;28;20201;-29
2022/11/14 13:01:56;;;;;;;24.67;15.00;;;9.40;99.90;;;;;;5009738;28;20209;-29
2022/11/14 13:05:13;;;;;;;22.07;14.17;;;9.40;99.90;;;;;;5004596;28;20232;-28
2022/11/14 13:08:08;;;;;;;22.20;15.83;;;9.50;99.90;;;;;;4993469;28;20287;-31
2022/11/14 13:10:38;;;;;;;20.43;14.40;;;9.50;99.90;;;;;;5005109;28;20212;-31